Alba, Missouri
Current Conditions -  °F | °C
As of 1:53 AM on Friday 24 Oct 2014 (Local Time) from KJLN Reporting Station
Haze Haze  
Wind Chill: 51°   Ceiling: Unl
Heat Index: 51°   Visibility: 4mi
Dew Point: 51°   Wind: 6mph
Humidity: 100%   Direction: 150°SSE
Pressure: 30.12"   Gusts: NA
Location:  37.24°N, 94.42°W
Report Text: KJLN 240653Z AUTO 15005KT 4SM BR CLR 11/11 A3012 RMK AO2 SLP198 T01060106
Loading
Personal Weather Stations






























Interactive Weather Map
Tropical Storm Tracking
New forecast layout! Learn more

10-Day Weather Forecast

Advertisements
Track Severe Weather on mobile